Time;durP1;ratioP1;P1;durP2;ratioP2;P2;SDS_P1;SDS_P2;PMS_P1;PMS_P2;Temp;Humidity;BMP_temperature;BMP_pressure;BME280_temperature;BME280_humidity;BME280_pressure;Samples;Min_cycle;Max_cycle;Signal;HPM_P1;HPM_P2
2023/04/23 00:01:16;;;;;;;11.07;7.80;;;13.80;99.90;;;;;;5024787;28;20037;-77
2023/04/23 00:03:44;;;;;;;16.83;8.90;;;13.70;99.90;;;;;;5014602;28;20060;-75
2023/04/23 00:06:21;;;;;;;12.85;9.32;;;13.20;99.90;;;;;;5034488;28;20037;-77
2023/04/23 00:08:59;;;;;;;11.43;9.07;;;12.60;99.90;;;;;;5011981;28;20038;-78
2023/04/23 00:11:32;;;;;;;12.35;9.63;;;12.40;99.90;;;;;;5002264;28;20081;-74
2023/04/23 00:14:00;;;;;;;11.75;8.68;;;12.60;99.90;;;;;;5010864;28;20100;-78
2023/04/23 00:16:29;;;;;;;11.95;9.05;;;12.30;99.90;;;;;;4994665;28;20053;-75
2023/04/23 00:18:56;;;;;;;13.23;9.18;;;12.30;99.90;;;;;;5012573;28;20049;-74
2023/04/23 00:21:26;;;;;;;19.35;9.35;;;12.60;99.90;;;;;;5030714;28;20033;-76
2023/04/23 00:23:56;;;;;;;12.60;8.98;;;13.20;99.90;;;;;;5016482;28;20125;-75
2023/04/23 00:26:23;;;;;;;14.35;9.23;;;13.40;99.90;;;;;;5002629;28;20034;-76
2023/04/23 00:28:50;;;;;;;15.10;9.90;;;13.50;99.90;;;;;;5017698;28;20053;-77
2023/04/23 00:31:18;;;;;;;12.82;9.82;;;13.10;99.90;;;;;;5025162;28;20045;-76
2023/04/23 00:33:45;;;;;;;15.77;9.60;;;13.20;99.90;;;;;;4997466;28;20066;-77
2023/04/23 00:36:18;;;;;;;12.00;8.98;;;13.40;99.90;;;;;;5023516;28;20034;-77
2023/04/23 00:38:45;;;;;;;15.30;10.52;;;13.30;99.90;;;;;;5000671;28;20046;-75
2023/04/23 00:41:15;;;;;;;12.07;9.27;;;13.00;99.90;;;;;;5011894;28;20040;-76
2023/04/23 00:43:43;;;;;;;12.88;9.63;;;13.00;99.90;;;;;;4993855;28;20073;-76
2023/04/23 00:46:11;;;;;;;15.15;10.68;;;13.10;99.90;;;;;;4998109;28;20045;-77
2023/04/23 00:48:40;;;;;;;14.68;10.23;;;13.00;99.90;;;;;;5005471;28;20050;-77
2023/04/23 00:51:11;;;;;;;16.27;10.55;;;13.00;99.90;;;;;;4997437;28;20049;-75
2023/04/23 00:53:39;;;;;;;15.55;10.85;;;12.90;99.90;;;;;;5027565;28;20046;-75
2023/04/23 00:56:07;;;;;;;14.60;10.48;;;12.90;99.90;;;;;;5018857;28;20048;-76
2023/04/23 00:58:35;;;;;;;12.88;9.93;;;12.80;99.90;;;;;;4998259;28;20057;-74
2023/04/23 01:01:03;;;;;;;17.40;11.35;;;12.90;99.90;;;;;;5011822;28;20045;-74
2023/04/23 01:03:34;;;;;;;13.95;10.38;;;12.90;99.90;;;;;;5024072;28;20042;-77
2023/04/23 01:06:03;;;;;;;15.77;10.55;;;12.90;99.90;;;;;;5002009;28;20094;-75
2023/04/23 01:08:33;;;;;;;13.88;10.25;;;12.80;99.90;;;;;;5033948;28;20051;-77
2023/04/23 01:11:02;;;;;;;13.65;10.32;;;12.80;99.90;;;;;;5024359;28;20073;-78
2023/04/23 01:13:29;;;;;;;15.55;10.40;;;12.80;99.90;;;;;;5034160;28;20045;-76
2023/04/23 01:15:57;;;;;;;13.73;10.98;;;12.80;99.90;;;;;;5030306;28;20045;-75
2023/04/23 01:18:25;;;;;;;13.77;10.15;;;12.90;99.90;;;;;;5016881;28;20037;-76
2023/04/23 01:20:53;;;;;;;14.07;9.93;;;12.70;99.90;;;;;;5010369;28;20046;-76
2023/04/23 01:23:20;;;;;;;13.15;10.45;;;12.60;99.90;;;;;;4999637;28;20038;-75
2023/04/23 01:25:51;;;;;;;14.73;10.40;;;12.60;99.90;;;;;;4994455;28;20041;-77
2023/04/23 01:28:23;;;;;;;13.38;10.73;;;12.70;99.90;;;;;;5006678;28;20073;-75
2023/04/23 01:30:51;;;;;;;15.30;10.23;;;12.60;99.90;;;;;;5004531;28;20042;-75
2023/04/23 01:33:18;;;;;;;12.20;9.73;;;12.60;99.90;;;;;;4990527;28;20046;-75
2023/04/23 01:35:48;;;;;;;17.88;10.35;;;12.70;99.90;;;;;;5022976;28;20048;-76
2023/04/23 01:38:21;;;;;;;14.68;10.50;;;12.70;99.90;;;;;;5026865;28;20060;-75
2023/04/23 01:40:51;;;;;;;13.27;10.32;;;12.60;99.90;;;;;;5023724;28;20121;-77
2023/04/23 01:43:19;;;;;;;15.60;9.90;;;12.70;99.90;;;;;;5026638;28;20049;-75
2023/04/23 01:45:47;;;;;;;12.65;9.30;;;12.60;99.90;;;;;;5010061;28;20060;-75
2023/04/23 01:48:14;;;;;;;15.70;10.93;;;12.60;99.90;;;;;;4999848;28;20050;-76
2023/04/23 01:50:42;;;;;;;12.60;10.45;;;12.60;99.90;;;;;;5026894;28;20030;-75
2023/04/23 01:53:23;;;;;;;13.55;9.73;;;12.60;99.90;;;;;;5030950;28;20049;-74
2023/04/23 01:55:54;;;;;;;17.00;10.73;;;12.50;99.90;;;;;;5030768;28;20068;-75
2023/04/23 01:58:23;;;;;;;12.63;9.80;;;12.40;99.90;;;;;;5028396;28;20048;-78
2023/04/23 02:00:51;;;;;;;13.38;10.25;;;12.30;99.90;;;;;;5027665;28;20383;-76
2023/04/23 02:03:18;;;;;;;14.98;10.05;;;12.40;99.90;;;;;;5008866;28;20114;-76
2023/04/23 02:05:47;;;;;;;13.07;9.23;;;12.40;99.90;;;;;;4986708;28;20034;-76
2023/04/23 02:08:15;;;;;;;13.43;9.38;;;12.30;99.90;;;;;;5011887;28;20101;-76
2023/04/23 02:10:43;;;;;;;13.48;9.90;;;12.30;99.90;;;;;;4995842;28;20041;-75
2023/04/23 02:13:10;;;;;;;15.65;9.85;;;12.30;99.90;;;;;;4996876;28;20037;-74
2023/04/23 02:15:39;;;;;;;14.05;9.98;;;12.30;99.90;;;;;;4980740;28;20199;-78
2023/04/23 02:18:06;;;;;;;13.30;10.20;;;12.30;99.90;;;;;;5017749;28;20408;-75
2023/04/23 02:20:37;;;;;;;13.82;9.05;;;12.20;99.90;;;;;;5013194;28;20054;-74
2023/04/23 02:23:06;;;;;;;10.77;9.02;;;11.60;99.90;;;;;;5004006;28;20077;-77
2023/04/23 02:25:33;;;;;;;11.32;8.95;;;11.30;99.90;;;;;;5019526;28;20046;-75
2023/04/23 02:28:05;;;;;;;17.27;10.10;;;11.50;99.90;;;;;;5020427;28;20068;-75
2023/04/23 02:30:44;;;;;;;13.65;8.70;;;11.30;99.90;;;;;;5005497;28;20110;-74
2023/04/23 02:33:11;;;;;;;14.93;9.23;;;10.70;99.90;;;;;;4977893;28;20078;-75
2023/04/23 02:35:39;;;;;;;11.52;8.70;;;10.50;99.90;;;;;;5006290;28;20052;-76
2023/04/23 02:38:07;;;;;;;12.82;9.23;;;10.50;99.90;;;;;;5007015;28;20121;-77
2023/04/23 02:40:34;;;;;;;14.48;10.40;;;11.30;99.90;;;;;;5002229;28;20378;-75
2023/04/23 02:43:02;;;;;;;11.88;9.57;;;11.40;99.90;;;;;;5009099;28;20053;-77
2023/04/23 02:45:30;;;;;;;15.40;10.15;;;11.40;99.90;;;;;;5008207;28;20054;-75
2023/04/23 02:47:57;;;;;;;12.60;10.13;;;11.40;99.90;;;;;;4992172;28;20057;-75
2023/04/23 02:50:25;;;;;;;12.05;9.82;;;11.60;99.90;;;;;;5011207;28;20053;-77
2023/04/23 02:52:55;;;;;;;11.52;9.57;;;11.70;99.90;;;;;;5010605;28;20057;-74
2023/04/23 02:55:24;;;;;;;13.70;10.73;;;11.70;99.90;;;;;;5030090;23;20053;-76
2023/04/23 02:57:51;;;;;;;15.73;9.88;;;11.10;99.90;;;;;;5040561;28;20038;-74
2023/04/23 03:00:18;;;;;;;13.90;10.57;;;10.70;99.90;;;;;;5007675;28;20037;-75
2023/04/23 03:02:46;;;;;;;13.27;10.18;;;11.20;99.90;;;;;;5032606;28;20044;-75
2023/04/23 03:05:13;;;;;;;12.55;9.68;;;11.40;99.90;;;;;;5026919;28;20087;-76
2023/04/23 03:07:43;;;;;;;14.20;10.27;;;11.50;99.90;;;;;;5032401;28;20041;-76
2023/04/23 03:10:10;;;;;;;13.65;9.20;;;11.40;99.90;;;;;;5021480;28;20026;-76
2023/04/23 03:12:38;;;;;;;15.57;10.32;;;11.30;99.90;;;;;;5023952;28;20049;-74
2023/04/23 03:15:06;;;;;;;11.07;9.75;;;11.40;99.90;;;;;;5042698;28;20120;-74
2023/04/23 03:17:33;;;;;;;15.48;9.52;;;11.30;99.90;;;;;;5010927;28;20477;-77
2023/04/23 03:20:00;;;;;;;13.75;9.95;;;11.40;99.90;;;;;;5007634;28;20069;-76
2023/04/23 03:22:28;;;;;;;14.20;10.40;;;11.40;99.90;;;;;;5037464;28;20045;-76
2023/04/23 03:24:55;;;;;;;12.88;9.93;;;11.20;99.90;;;;;;5015899;28;20052;-77
2023/04/23 03:27:22;;;;;;;16.75;10.45;;;11.30;99.90;;;;;;5012333;28;20495;-75
2023/04/23 03:29:49;;;;;;;15.25;10.13;;;11.40;99.90;;;;;;5007658;28;20092;-74
2023/04/23 03:32:16;;;;;;;12.40;9.80;;;11.40;99.90;;;;;;5035458;28;20038;-75
2023/04/23 03:34:44;;;;;;;12.30;9.50;;;11.50;99.90;;;;;;5025344;28;20050;-74
2023/04/23 03:37:12;;;;;;;12.88;9.32;;;11.50;99.90;;;;;;5011637;28;20041;-77
2023/04/23 03:39:39;;;;;;;12.88;9.70;;;11.40;99.90;;;;;;5012525;28;20045;-76
2023/04/23 03:42:07;;;;;;;13.82;10.05;;;11.20;99.90;;;;;;5031541;28;20095;-75
2023/04/23 03:44:34;;;;;;;11.60;9.93;;;11.00;99.90;;;;;;5036567;28;20036;-75
2023/04/23 03:47:01;;;;;;;11.73;9.77;;;11.20;99.90;;;;;;5023505;28;20465;-77
2023/04/23 03:49:28;;;;;;;12.73;9.93;;;11.20;99.90;;;;;;5018911;28;20064;-76
2023/04/23 03:51:56;;;;;;;11.43;9.73;;;11.10;99.90;;;;;;4992981;28;20066;-75
2023/04/23 03:54:24;;;;;;;14.73;10.70;;;11.10;99.90;;;;;;5010187;28;20150;-78
2023/04/23 03:56:51;;;;;;;13.00;10.18;;;11.10;99.90;;;;;;5006653;28;20034;-75
2023/04/23 03:59:22;;;;;;;13.63;10.30;;;11.10;99.90;;;;;;4995925;28;20042;-76
2023/04/23 04:01:54;;;;;;;15.13;10.70;;;11.10;99.90;;;;;;5023247;28;20046;-76
2023/04/23 04:04:22;;;;;;;19.17;11.45;;;11.10;99.90;;;;;;5008887;28;20102;-74
2023/04/23 04:06:49;;;;;;;14.18;10.77;;;11.10;99.90;;;;;;5011410;28;20038;-77
2023/04/23 04:09:17;;;;;;;16.27;10.75;;;10.90;99.90;;;;;;5007579;28;20042;-76
2023/04/23 04:11:44;;;;;;;13.38;10.00;;;11.00;99.90;;;;;;5016650;28;20101;-76
2023/04/23 04:14:11;;;;;;;12.52;10.52;;;11.30;99.90;;;;;;5027682;28;20052;-77
2023/04/23 04:16:39;;;;;;;14.77;10.25;;;11.30;99.90;;;;;;5022608;28;20034;-74
2023/04/23 04:19:06;;;;;;;13.07;9.65;;;11.20;99.90;;;;;;5003929;28;20050;-76
2023/04/23 04:21:34;;;;;;;14.65;10.20;;;11.30;99.90;;;;;;5008717;28;20050;-76
2023/04/23 04:24:01;;;;;;;13.52;9.88;;;11.30;99.90;;;;;;5025249;28;20053;-74
2023/04/23 04:26:31;;;;;;;12.82;10.52;;;11.20;99.90;;;;;;5023112;28;20045;-75
2023/04/23 04:29:00;;;;;;;12.83;9.90;;;11.10;99.90;;;;;;4974629;28;20069;-75
2023/04/23 04:31:27;;;;;;;12.27;9.48;;;11.10;99.90;;;;;;5014727;28;20052;-75
2023/04/23 04:33:55;;;;;;;12.75;9.52;;;11.40;99.90;;;;;;5024037;28;20057;-75
2023/04/23 04:36:26;;;;;;;11.10;8.73;;;11.20;99.90;;;;;;5022368;22;20125;-74
2023/04/23 04:38:59;;;;;;;13.07;9.35;;;11.00;99.90;;;;;;5001415;28;20057;-75
2023/04/23 04:41:27;;;;;;;10.88;8.85;;;11.00;99.90;;;;;;5012172;28;20117;-75
2023/04/23 04:43:54;;;;;;;13.02;9.35;;;11.10;99.90;;;;;;5017398;28;20034;-76
2023/04/23 04:46:27;;;;;;;12.05;8.60;;;11.30;99.90;;;;;;5002880;28;20077;-74
2023/04/23 04:48:58;;;;;;;11.43;8.63;;;11.40;99.90;;;;;;5002524;28;20042;-77
2023/04/23 04:51:27;;;;;;;11.20;9.07;;;11.50;99.90;;;;;;4993793;28;20461;-74
2023/04/23 04:53:55;;;;;;;9.88;8.40;;;11.60;99.90;;;;;;5019000;28;20042;-75
2023/04/23 04:56:24;;;;;;;13.40;9.80;;;11.50;99.90;;;;;;5017258;28;20052;-77
2023/04/23 04:58:51;;;;;;;11.63;8.82;;;11.60;99.90;;;;;;5015748;28;20039;-76
2023/04/23 05:01:21;;;;;;;11.38;9.60;;;11.60;99.90;;;;;;5007980;28;20124;-76
2023/04/23 05:03:50;;;;;;;12.23;9.25;;;11.70;99.90;;;;;;5007047;28;20054;-78
2023/04/23 05:06:18;;;;;;;12.10;9.05;;;11.60;99.90;;;;;;5006423;28;20482;-78
2023/04/23 05:08:47;;;;;;;12.70;9.13;;;11.60;99.90;;;;;;5009364;28;20068;-79
2023/04/23 05:11:16;;;;;;;13.57;10.00;;;11.70;99.90;;;;;;5022667;28;20066;-78
2023/04/23 05:13:44;;;;;;;16.15;10.70;;;11.50;99.90;;;;;;5005415;28;20043;-76
2023/04/23 05:16:20;;;;;;;14.43;10.15;;;11.40;99.90;;;;;;5021720;28;20045;-77
2023/04/23 05:18:50;;;;;;;14.73;9.85;;;11.60;99.90;;;;;;4994703;28;20061;-76
2023/04/23 05:21:19;;;;;;;16.02;9.77;;;11.50;99.90;;;;;;5020915;28;20433;-78
2023/04/23 05:23:48;;;;;;;12.05;9.27;;;11.50;99.90;;;;;;5028199;28;20054;-76
2023/04/23 05:26:18;;;;;;;10.95;9.27;;;11.40;99.90;;;;;;5018529;28;20373;-76
2023/04/23 05:28:45;;;;;;;14.38;9.00;;;11.40;99.90;;;;;;5041162;28;20061;-75
2023/04/23 05:31:13;;;;;;;10.70;8.30;;;11.30;99.90;;;;;;5020691;28;20034;-76
2023/04/23 05:33:48;;;;;;;11.57;9.20;;;11.20;99.90;;;;;;5028383;28;20052;-75
2023/04/23 05:36:26;;;;;;;11.45;8.68;;;11.40;99.90;;;;;;4990160;28;20054;-76
2023/04/23 05:38:53;;;;;;;11.20;8.43;;;11.70;99.90;;;;;;4992685;28;20110;-76
2023/04/23 05:41:21;;;;;;;16.63;9.23;;;11.40;99.90;;;;;;5003371;28;20042;-77
2023/04/23 05:43:48;;;;;;;11.85;8.90;;;11.50;99.90;;;;;;5017950;28;20046;-75
2023/04/23 05:46:15;;;;;;;10.38;8.70;;;11.50;99.90;;;;;;4999945;28;20366;-76
2023/04/23 05:48:44;;;;;;;12.45;8.93;;;11.30;99.90;;;;;;5015402;28;20080;-75
2023/04/23 05:51:12;;;;;;;10.70;9.00;;;11.70;99.90;;;;;;5019071;28;20045;-77
2023/04/23 05:53:40;;;;;;;11.77;8.73;;;11.80;99.90;;;;;;4992370;28;20059;-76
2023/04/23 05:56:07;;;;;;;12.13;8.80;;;11.70;99.90;;;;;;4986989;28;20039;-76
2023/04/23 05:58:34;;;;;;;11.55;8.90;;;11.80;99.90;;;;;;5002153;28;20046;-76
2023/04/23 06:01:02;;;;;;;12.77;9.18;;;12.00;99.90;;;;;;4987887;28;20122;-77
2023/04/23 06:03:29;;;;;;;15.13;9.55;;;12.20;99.90;;;;;;4994726;28;20098;-76
2023/04/23 06:05:57;;;;;;;14.23;9.95;;;12.20;99.90;;;;;;4994349;28;20118;-77
2023/04/23 06:08:24;;;;;;;18.33;10.45;;;12.50;99.90;;;;;;4990794;28;20044;-77
2023/04/23 06:10:54;;;;;;;17.15;11.95;;;12.60;99.90;;;;;;5015015;28;20042;-75
2023/04/23 06:13:22;;;;;;;16.60;10.52;;;12.60;99.90;;;;;;4970894;28;20051;-77
2023/04/23 06:15:49;;;;;;;14.55;9.82;;;12.50;99.90;;;;;;4987182;28;20046;-77
2023/04/23 06:18:16;;;;;;;15.85;10.40;;;12.50;99.90;;;;;;5008569;28;20038;-77
2023/04/23 06:20:44;;;;;;;15.60;10.02;;;12.50;99.90;;;;;;5000634;28;20038;-77
2023/04/23 06:23:13;;;;;;;14.43;9.95;;;12.50;99.90;;;;;;5001045;28;20045;-76
2023/04/23 06:25:46;;;;;;;11.20;8.50;;;12.70;99.90;;;;;;5004752;28;20053;-74
2023/04/23 06:28:13;;;;;;;13.88;9.80;;;12.80;99.90;;;;;;5008038;28;20038;-76
2023/04/23 06:30:41;;;;;;;16.58;9.88;;;12.80;99.90;;;;;;4996353;28;20141;-76
2023/04/23 06:33:09;;;;;;;13.77;9.40;;;12.80;99.90;;;;;;4972328;28;20051;-75
2023/04/23 06:35:38;;;;;;;12.70;9.73;;;12.90;99.90;;;;;;4980261;28;20063;-75
2023/04/23 06:38:06;;;;;;;17.25;9.55;;;12.80;99.90;;;;;;5001397;28;20487;-76
2023/04/23 06:40:33;;;;;;;12.75;9.15;;;12.80;99.90;;;;;;5020024;23;20061;-76
2023/04/23 06:43:04;;;;;;;12.73;9.80;;;12.80;99.90;;;;;;5025865;28;20489;-74
2023/04/23 06:45:32;;;;;;;15.82;9.48;;;12.90;99.90;;;;;;5022109;28;20034;-76
2023/04/23 06:48:36;;;;;;;14.05;8.77;;;12.80;99.90;;;;;;5007105;28;20128;-75
2023/04/23 06:51:10;;;;;;;12.57;9.15;;;13.00;99.90;;;;;;5035626;28;20040;-74
2023/04/23 06:53:38;;;;;;;13.75;9.70;;;13.10;99.90;;;;;;5015010;28;20050;-75
2023/04/23 06:56:07;;;;;;;14.40;8.98;;;13.30;99.90;;;;;;5022576;28;20040;-74
2023/04/23 06:58:37;;;;;;;13.60;9.02;;;13.40;99.90;;;;;;5031295;28;20041;-75
2023/04/23 07:01:10;;;;;;;15.68;9.13;;;13.40;99.90;;;;;;5009955;28;20041;-74
2023/04/23 07:03:38;;;;;;;12.43;9.32;;;13.50;99.90;;;;;;5005227;28;20052;-75
2023/04/23 07:06:07;;;;;;;14.55;9.95;;;13.50;99.90;;;;;;5022865;28;20040;-75
2023/04/23 07:08:38;;;;;;;16.92;9.85;;;13.60;99.90;;;;;;4992983;28;20053;-78
2023/04/23 07:11:06;;;;;;;13.75;9.77;;;13.60;99.90;;;;;;5028125;28;20038;-73
2023/04/23 07:13:50;;;;;;;13.75;9.63;;;13.80;99.90;;;;;;5022083;28;20045;-77
2023/04/23 07:16:31;;;;;;;12.65;9.68;;;13.70;99.90;;;;;;5125346;23;20104;-77
2023/04/23 07:19:14;;;;;;;15.30;9.60;;;13.50;99.90;;;;;;5064124;28;20045;-74
2023/04/23 07:21:56;;;;;;;13.98;9.77;;;13.60;99.90;;;;;;5059634;28;20040;-77
2023/04/23 07:24:25;;;;;;;12.85;9.65;;;13.70;99.90;;;;;;5199854;22;20508;-76
2023/04/23 07:27:09;;;;;;;16.13;9.90;;;13.80;99.90;;;;;;5040389;28;20073;-76
2023/04/23 07:30:00;;;;;;;14.20;9.43;;;13.90;99.90;;;;;;5042215;22;20049;-77
2023/04/23 07:32:42;;;;;;;39.72;23.70;;;14.10;99.90;;;;;;5026983;28;20079;-75
2023/04/23 07:42:11;;;;;;;21.70;15.55;;;14.90;99.90;;;;;;4995266;28;20114;-77
2023/04/23 07:44:56;;;;;;;24.38;16.85;;;14.80;99.90;;;;;;4988483;28;20054;-75
2023/04/23 07:47:50;;;;;;;14.95;9.50;;;14.80;99.90;;;;;;4970210;28;20050;-75
2023/04/23 07:50:50;;;;;;;12.98;8.65;;;14.70;99.90;;;;;;4955732;28;20042;-74
2023/04/23 07:53:45;;;;;;;10.60;7.82;;;14.70;99.90;;;;;;4955778;28;20061;-76
2023/04/23 07:56:57;;;;;;;12.23;7.85;;;14.80;99.90;;;;;;4972921;28;20065;-75
2023/04/23 08:00:11;;;;;;;11.05;8.40;;;14.60;99.90;;;;;;4959974;28;20043;-76
2023/04/23 08:02:55;;;;;;;12.60;8.00;;;14.60;99.90;;;;;;4973452;28;20177;-75
2023/04/23 08:05:25;;;;;;;12.27;8.27;;;14.50;99.90;;;;;;4990391;28;20105;-74
2023/04/23 08:07:52;;;;;;;11.48;8.35;;;14.70;99.90;;;;;;4986402;28;20042;-74
2023/04/23 08:10:20;;;;;;;13.63;7.40;;;14.80;99.90;;;;;;4970670;28;20118;-74
2023/04/23 08:12:47;;;;;;;10.68;7.22;;;14.90;99.90;;;;;;4956392;28;20491;-75
2023/04/23 08:15:17;;;;;;;10.35;7.60;;;15.00;99.90;;;;;;4950594;28;20047;-75
2023/04/23 08:17:47;;;;;;;13.03;7.53;;;15.10;99.90;;;;;;4954357;28;20035;-73
2023/04/23 08:20:18;;;;;;;9.50;7.53;;;15.00;99.90;;;;;;4967210;28;20050;-77
2023/04/23 08:22:49;;;;;;;10.95;7.00;;;15.00;99.90;;;;;;4956096;28;20078;-76
2023/04/23 08:25:16;;;;;;;9.82;7.53;;;15.10;99.90;;;;;;4987527;28;20054;-74
2023/04/23 08:28:06;;;;;;;44.65;30.08;;;15.10;99.90;;;;;;4976773;28;20512;-74
2023/04/23 08:30:49;;;;;;;11.40;9.40;;;15.20;99.90;;;;;;4947562;28;20061;-75
2023/04/23 08:36:40;;;;;;;11.88;8.00;;;15.60;99.90;;;;;;4932087;29;20104;-76
2023/04/23 08:39:16;;;;;;;11.75;7.93;;;15.70;99.90;;;;;;4943803;29;20044;-75
2023/04/23 08:42:16;;;;;;;9.57;7.40;;;15.80;99.90;;;;;;4932210;29;20036;-75
2023/04/23 08:45:01;;;;;;;11.13;6.85;;;15.90;99.90;;;;;;4945166;29;20040;-77
2023/04/23 08:47:44;;;;;;;8.55;6.70;;;16.00;99.90;;;;;;4941298;29;20116;-77
2023/04/23 08:50:18;;;;;;;9.35;5.80;;;16.20;99.90;;;;;;4935512;29;20042;-77
2023/04/23 08:53:24;;;;;;;7.82;5.97;;;16.30;99.90;;;;;;4947186;29;20071;-77
2023/04/23 08:56:08;;;;;;;10.20;6.60;;;16.60;99.90;;;;;;4959903;29;20472;-73
2023/04/23 08:59:09;;;;;;;10.30;6.53;;;16.80;99.90;;;;;;4959544;29;20133;-78
2023/04/23 09:02:16;;;;;;;9.75;6.25;;;17.10;99.90;;;;;;4949272;29;20051;-76
2023/04/23 09:05:37;;;;;;;7.53;5.80;;;17.30;99.90;;;;;;4932004;29;20042;-75
2023/04/23 09:08:20;;;;;;;7.30;5.90;;;17.20;99.90;;;;;;4961006;29;20036;-76
2023/04/23 09:15:27;;;;;;;14.85;8.73;;;17.20;98.90;;;;;;4953124;29;20059;-77
2023/04/23 09:28:03;;;;;;;8.75;5.75;;;17.80;97.20;;;;;;4009904;23;20042;-79
2023/04/23 09:30:50;;;;;;;9.82;5.50;;;17.90;96.80;;;;;;4958337;29;20074;-79
2023/04/23 09:34:29;;;;;;;9.75;6.93;;;17.90;96.10;;;;;;4920780;29;20070;-77
2023/04/23 09:45:01;;;;;;;10.57;5.60;;;18.60;95.40;;;;;;5541319;23;20073;-79
2023/04/23 10:28:30;;;;;;;17.10;10.93;;;20.10;85.10;;;;;;3356279;23;20326;-78
2023/04/23 10:32:26;;;;;;;34.78;25.88;;;20.40;83.50;;;;;;4893584;29;20084;-80
2023/04/23 12:19:35;;;;;;;8.63;5.30;;;23.90;57.40;;;;;;4662434;27;20045;-80
2023/04/23 13:15:37;;;;;;;5.50;3.03;;;30.90;46.20;;;;;;4688526;27;20045;-80
2023/04/23 13:22:58;;;;;;;5.72;3.13;;;32.90;41.20;;;;;;4881490;29;20105;-81
2023/04/23 13:26:33;;;;;;;4.97;2.90;;;33.00;39.20;;;;;;4853790;29;20050;-81
2023/04/23 13:29:44;;;;;;;5.57;2.83;;;32.00;39.60;;;;;;4867771;29;20105;-82
2023/04/23 13:41:55;;;;;;;5.20;2.72;;;33.40;41.00;;;;;;5369342;23;20053;-80
2023/04/23 13:45:13;;;;;;;6.78;3.10;;;31.70;42.30;;;;;;4865848;29;20069;-79
2023/04/23 13:52:07;;;;;;;6.47;3.15;;;28.00;44.30;;;;;;4875135;29;20105;-81
2023/04/23 13:55:09;;;;;;;7.15;2.83;;;28.10;44.60;;;;;;4877180;29;20060;-82
2023/04/23 13:58:12;;;;;;;6.65;3.13;;;27.20;43.00;;;;;;4859007;29;20052;-80
2023/04/23 14:02:28;;;;;;;6.43;3.30;;;28.10;44.60;;;;;;4840246;29;20038;-80
2023/04/23 14:45:39;;;;;;;6.05;2.58;;;32.90;39.90;;;;;;5068213;23;20068;-82
2023/04/23 14:49:15;;;;;;;4.45;2.22;;;32.20;39.30;;;;;;4914473;29;20048;-82
2023/04/23 14:52:48;;;;;;;5.35;2.47;;;34.00;38.50;;;;;;4897994;29;20044;-82
2023/04/23 14:55:50;;;;;;;4.88;2.60;;;32.80;37.10;;;;;;4930905;29;20052;-80
2023/04/23 15:38:35;;;;;;;6.07;2.60;;;31.10;41.80;;;;;;5289615;23;20036;-79
2023/04/23 15:48:50;;;;;;;5.35;2.70;;;28.40;43.80;;;;;;4929926;29;20032;-82
2023/04/23 15:56:06;;;;;;;7.45;3.10;;;29.40;43.10;;;;;;5031615;23;20079;-81
2023/04/23 15:59:54;;;;;;;8.13;3.80;;;29.80;42.20;;;;;;4920205;29;20036;-81
2023/04/23 16:06:55;;;;;;;5.88;3.33;;;29.70;42.10;;;;;;4883114;29;20037;-80
2023/04/23 16:14:52;;;;;;;6.38;3.30;;;29.80;41.90;;;;;;4810377;29;20107;-83
2023/04/23 16:17:41;;;;;;;6.30;3.60;;;29.40;42.20;;;;;;4882402;29;20053;-80
2023/04/23 16:28:47;;;;;;;7.00;3.75;;;26.70;45.40;;;;;;4905298;29;20041;-82
2023/04/23 16:37:01;;;;;;;7.28;3.72;;;24.50;49.50;;;;;;4903407;29;20047;-78
2023/04/23 17:31:58;;;;;;;36.95;23.92;;;20.50;59.70;;;;;;5020259;23;20334;-75
2023/04/23 17:35:27;;;;;;;14.38;9.90;;;20.30;60.90;;;;;;4890087;29;20029;-74
2023/04/23 17:39:00;;;;;;;10.80;6.47;;;20.20;62.10;;;;;;4888938;29;20124;-76
2023/04/23 17:42:15;;;;;;;6.82;4.97;;;20.10;63.00;;;;;;4884468;29;20045;-74
2023/04/23 17:45:49;;;;;;;9.18;5.60;;;19.70;63.10;;;;;;4902881;29;20149;-77
2023/04/23 17:49:03;;;;;;;8.98;5.68;;;19.70;62.90;;;;;;4871319;29;20036;-79
2023/04/23 18:16:11;;;;;;;9.85;6.78;;;19.10;64.60;;;;;;5342697;23;20040;-81
2023/04/23 18:43:47;;;;;;;11.75;8.30;;;18.40;71.40;;;;;;4908300;29;20044;-78
2023/04/23 20:14:44;;;;;;;6.93;5.13;;;16.40;98.10;;;;;;4846420;29;20531;-76
2023/04/23 20:17:52;;;;;;;9.18;6.20;;;16.40;98.90;;;;;;4820101;29;20056;-77
2023/04/23 20:20:53;;;;;;;8.48;5.38;;;16.50;98.80;;;;;;4826012;29;20115;-78
2023/04/23 20:24:11;;;;;;;7.28;5.72;;;16.50;99.20;;;;;;4842894;29;20073;-76
2023/04/23 20:28:02;;;;;;;8.40;5.60;;;16.40;99.30;;;;;;4901971;29;20060;-77
2023/04/23 20:30:37;;;;;;;7.60;5.50;;;16.50;99.10;;;;;;4887087;29;20116;-78
2023/04/23 20:33:31;;;;;;;9.73;6.00;;;16.40;99.40;;;;;;4877816;29;20037;-77
2023/04/23 20:36:50;;;;;;;7.80;5.35;;;16.30;99.60;;;;;;4886677;29;20053;-78
2023/04/23 20:49:06;;;;;;;9.07;5.40;;;16.00;99.70;;;;;;4847639;29;20033;-76
2023/04/23 21:00:46;;;;;;;9.97;6.37;;;16.10;99.50;;;;;;4962933;23;20053;-79
2023/04/23 21:04:20;;;;;;;8.35;6.15;;;16.00;99.90;;;;;;4900946;29;20060;-80
2023/04/23 21:11:54;;;;;;;7.90;6.13;;;15.90;99.90;;;;;;4893046;29;20037;-77
2023/04/23 21:18:26;;;;;;;20.23;11.55;;;15.90;99.90;;;;;;5658432;23;21128;-80
2023/04/23 21:45:03;;;;;;;;;;;;;;;;;;;;;
2023/04/23 21:54:46;;;;;;;10.98;6.07;;;15.20;99.90;;;;;;4921343;29;20036;-77
2023/04/23 22:29:50;;;;;;;9.13;7.23;;;15.50;99.90;;;;;;5428449;23;20295;-77
2023/04/23 22:32:42;;;;;;;8.80;6.47;;;15.30;99.90;;;;;;4908804;29;20048;-76
2023/04/23 22:35:55;;;;;;;10.18;7.40;;;15.30;99.90;;;;;;4920848;29;20064;-76
2023/04/23 22:39:45;;;;;;;6.90;5.55;;;15.20;99.90;;;;;;4895972;29;20051;-76
2023/04/23 22:42:38;;;;;;;8.23;5.75;;;15.20;99.90;;;;;;4901267;29;20041;-78
2023/04/23 22:45:21;;;;;;;8.38;5.68;;;15.10;99.90;;;;;;4895442;29;20044;-79
2023/04/23 22:48:03;;;;;;;8.38;5.97;;;15.00;99.90;;;;;;4883053;29;20108;-80
2023/04/23 22:50:41;;;;;;;7.80;5.80;;;15.00;99.90;;;;;;4916240;29;20075;-77
2023/04/23 22:53:23;;;;;;;6.80;5.53;;;14.80;99.90;;;;;;4887459;29;20041;-76
2023/04/23 22:55:57;;;;;;;9.13;5.93;;;15.00;99.90;;;;;;4910106;29;20056;-76
2023/04/23 22:58:25;;;;;;;7.57;5.88;;;15.00;99.90;;;;;;4909466;29;20049;-76
2023/04/23 23:01:08;;;;;;;7.70;5.88;;;14.90;99.90;;;;;;4899181;29;20056;-75
2023/04/23 23:04:04;;;;;;;8.57;5.70;;;14.70;99.90;;;;;;4886684;29;20140;-76
2023/04/23 23:06:33;;;;;;;8.57;5.88;;;14.70;99.90;;;;;;4909971;29;20037;-75
2023/04/23 23:09:03;;;;;;;6.95;5.70;;;14.90;99.90;;;;;;4915901;29;20463;-78
2023/04/23 23:12:14;;;;;;;7.53;5.60;;;14.80;99.90;;;;;;4904522;29;20057;-75
2023/04/23 23:15:33;;;;;;;8.68;5.82;;;14.80;99.90;;;;;;4890653;29;20028;-74
2023/04/23 23:18:21;;;;;;;10.90;6.47;;;14.70;99.90;;;;;;4874043;29;20061;-75
2023/04/23 23:20:51;;;;;;;8.95;6.30;;;14.60;99.90;;;;;;4906247;29;20056;-77
2023/04/23 23:25:57;;;;;;;8.15;6.13;;;14.60;99.90;;;;;;4913771;29;20073;-77
2023/04/23 23:28:36;;;;;;;7.72;6.40;;;14.60;99.90;;;;;;4918966;29;20056;-75
2023/04/23 23:31:20;;;;;;;9.85;6.72;;;14.50;99.90;;;;;;4889617;29;20056;-78
2023/04/23 23:34:23;;;;;;;10.52;7.57;;;14.40;99.90;;;;;;4917916;29;20072;-75
2023/04/23 23:40:18;;;;;;;10.85;6.95;;;14.30;99.90;;;;;;4919489;29;20053;-76
2023/04/23 23:43:11;;;;;;;15.00;8.25;;;14.30;99.90;;;;;;4891998;29;20060;-76
2023/04/23 23:45:58;;;;;;;9.52;7.25;;;14.40;99.90;;;;;;4913300;29;20064;-76
2023/04/23 23:48:28;;;;;;;9.82;7.40;;;14.30;99.90;;;;;;4924676;29;20049;-76
2023/04/23 23:51:15;;;;;;;12.75;7.25;;;14.30;99.90;;;;;;4900308;29;20044;-77
2023/04/23 23:54:45;;;;;;;12.88;7.50;;;14.30;99.90;;;;;;4882573;29;20049;-76
